Southeast Iowa Regional Airport
KBRL : now visible

Airfield :











YOU CAN JOIN US ON...

 
LOGIN :

Register | Disclaimer

   EN    FR    IT 

 









Legend :    VFR   Marginal VFR   IFR   Intensive IFR   Very Intensive IFR
Visi :
Ceiling :
>= 8 km
>= 3000ft
5 to 8 km
1000 to 3000 ft
1500m to 5 km
500 to 1000 ft
800 to 1500m
200 to 500 ft
< 800m
< 200 ft
Symbols :   Thunderstorms  Fog  Heavy snow  Heavy precipitations  Wind > 20 kt






- Airport Elevation : 698 ft
- IATA code : BRL


KBRL - Southeast Iowa Regional

CURRENT METAR :
  • 221153Z AUTO 34007KT 10SM OVC013 M03/M06 A3020 RMK AO2 SLP235 T10281061 10006 21028 53014

EXPIRED METARs :
  • 221053Z AUTO 36009KT 10SM OVC012 M02/M06 A3018 RMK AO2 SLP227 T10221056
  • 221002Z AUTO 33009KT 10SM BKN012 M02/M05 A3018 RMK AO2 T10171050
  • 220953Z AUTO 33009KT 10SM SCT012 M02/M06 A3017 RMK AO2 SLP222 T10221056

TAF KBRL
Valid from the 22 at 12:00 until the 23 at 12:00 UTC


221139Z 2212/2312 36009KT P6SM OVC012
FM221900 35005KT P6SM SCT025
FM230400 VRB03KT P6SM BKN150



MET'MAP, your aeronautical weather chart ! - Copyright ORBIFLY December 2007 - Disclaimer

ORBIFLY MET'MAP TEAM :

Programming & Development : Alexandra Zaïnal
Concept & Development : Baudouin d'Aumeries
Co-Development & Prog : Marc-Olivier Méhu
Technical & hardware support : Manuel Goepfert

Contact : metmap@orbifly.com




SOURCES & CREDITS :

   NOAA       Earth
Advisory